createdAt,value
2017-08-04T00:00:33.544Z,15.20
2017-08-04T00:03:03.165Z,15.10
2017-08-04T00:05:31.522Z,14.90
2017-08-04T00:07:59.852Z,14.80
2017-08-04T00:10:28.270Z,14.80
2017-08-04T00:12:56.575Z,14.80
2017-08-04T00:15:24.933Z,14.80
2017-08-04T00:17:53.229Z,14.70
2017-08-04T00:20:22.797Z,14.70
2017-08-04T00:22:51.178Z,14.70
2017-08-04T00:25:19.475Z,14.80
2017-08-04T00:27:47.810Z,14.80
2017-08-04T00:30:16.109Z,14.80
2017-08-04T00:32:44.699Z,14.80
2017-08-04T00:35:13.167Z,14.80
2017-08-04T00:37:41.502Z,14.80
2017-08-04T00:40:09.974Z,14.90
2017-08-04T00:42:41.312Z,14.90
2017-08-04T00:45:09.718Z,15.00
2017-08-04T00:47:38.085Z,15.10
2017-08-04T00:50:06.413Z,15.10
2017-08-04T00:52:34.778Z,15.20
2017-08-04T00:55:03.156Z,15.10
2017-08-04T00:57:31.505Z,15.10
2017-08-04T00:59:59.972Z,15.10
2017-08-04T01:02:28.330Z,15.10
2017-08-04T01:04:56.686Z,15.10
2017-08-04T01:07:25.029Z,15.10
2017-08-04T01:09:53.458Z,15.20
2017-08-04T01:12:21.874Z,15.30
2017-08-04T01:14:50.264Z,15.40
2017-08-04T01:17:18.686Z,15.40
2017-08-04T01:19:47.121Z,15.40
2017-08-04T01:22:15.456Z,15.40
2017-08-04T01:24:43.774Z,15.40
2017-08-04T01:27:12.156Z,15.50
2017-08-04T01:29:40.488Z,15.40
2017-08-04T01:32:09.070Z,15.40
2017-08-04T01:34:37.584Z,15.30
2017-08-04T01:37:06.031Z,15.20
2017-08-04T01:39:34.402Z,15.10
2017-08-04T01:42:02.852Z,15.20
2017-08-04T01:44:31.188Z,15.20
2017-08-04T01:47:00.904Z,15.10
2017-08-04T01:49:29.395Z,15.10
2017-08-04T01:51:57.744Z,15.00
2017-08-04T01:54:26.914Z,15.00
2017-08-04T01:56:55.215Z,14.90
2017-08-04T01:59:23.583Z,15.00
2017-08-04T02:01:51.927Z,14.90
2017-08-04T02:04:20.220Z,14.90
2017-08-04T02:06:48.613Z,15.00
2017-08-04T02:09:16.903Z,14.90
2017-08-04T02:11:45.287Z,14.80
2017-08-04T02:14:13.620Z,14.80
2017-08-04T02:16:41.957Z,14.70
2017-08-04T02:19:10.419Z,14.60
2017-08-04T02:21:38.877Z,14.60
2017-08-04T02:24:07.223Z,14.60
2017-08-04T02:26:35.587Z,14.60
2017-08-04T02:29:04.707Z,14.60
2017-08-04T02:31:33.043Z,14.60
2017-08-04T02:34:01.348Z,14.70
2017-08-04T02:36:29.748Z,14.80
2017-08-04T02:38:58.067Z,14.80
2017-08-04T02:41:26.411Z,14.90
2017-08-04T02:43:54.757Z,14.90
2017-08-04T02:46:23.039Z,14.80
2017-08-04T02:48:51.373Z,14.90
2017-08-04T02:51:19.669Z,14.90
2017-08-04T02:53:48.100Z,14.80
2017-08-04T02:56:16.397Z,14.60
2017-08-04T02:58:44.699Z,14.50
2017-08-04T03:01:13.059Z,14.40
2017-08-04T03:03:41.424Z,14.30
2017-08-04T03:06:09.830Z,14.20
2017-08-04T03:08:38.192Z,14.10
2017-08-04T03:11:06.584Z,14.10
2017-08-04T03:13:34.873Z,14.10
2017-08-04T03:16:04.159Z,14.10
2017-08-04T03:18:32.509Z,14.00
2017-08-04T03:21:00.799Z,14.00
2017-08-04T03:23:29.156Z,14.00
2017-08-04T03:25:57.489Z,14.10
2017-08-04T03:28:25.870Z,14.10
2017-08-04T03:30:54.177Z,14.30
2017-08-04T03:33:22.519Z,14.30
2017-08-04T03:35:50.812Z,14.40
2017-08-04T03:38:19.152Z,14.50
2017-08-04T03:40:47.492Z,14.60
2017-08-04T03:43:15.806Z,14.50
2017-08-04T03:45:44.164Z,14.60
2017-08-04T03:48:12.512Z,14.60
2017-08-04T03:50:40.874Z,14.60
2017-08-04T03:53:09.263Z,14.60
2017-08-04T03:55:37.675Z,14.60
2017-08-04T03:58:06.024Z,14.60
2017-08-04T04:00:34.432Z,14.50
2017-08-04T04:03:02.764Z,14.40
2017-08-04T04:05:32.384Z,14.40
2017-08-04T04:08:00.723Z,14.50
2017-08-04T04:10:29.938Z,14.50
2017-08-04T04:12:58.260Z,14.40
2017-08-04T04:15:26.559Z,14.40
2017-08-04T04:17:54.903Z,14.40
2017-08-04T04:20:23.244Z,14.50
2017-08-04T04:22:51.585Z,14.50
2017-08-04T04:25:19.934Z,14.50
2017-08-04T04:27:48.275Z,14.50
2017-08-04T04:30:17.023Z,14.50
2017-08-04T04:32:45.379Z,14.50
2017-08-04T04:35:13.893Z,14.60
2017-08-04T04:37:42.220Z,14.60
2017-08-04T04:40:11.368Z,14.60
2017-08-04T04:42:39.687Z,14.50
2017-08-04T04:45:08.279Z,14.50
2017-08-04T04:47:36.585Z,14.50
2017-08-04T04:50:04.881Z,14.40
2017-08-04T04:52:34.812Z,14.50
2017-08-04T04:55:04.038Z,14.50
2017-08-04T04:57:33.091Z,14.50
2017-08-04T05:00:01.425Z,14.50
2017-08-04T05:02:30.188Z,14.50
2017-08-04T05:04:58.504Z,14.50
2017-08-04T05:07:27.628Z,14.50
2017-08-04T05:09:56.766Z,14.50
2017-08-04T05:12:25.076Z,14.40
2017-08-04T05:14:53.440Z,14.40
2017-08-04T05:17:21.728Z,14.40
2017-08-04T05:19:50.070Z,14.30
2017-08-04T05:22:18.360Z,14.40
2017-08-04T05:24:46.703Z,14.40
2017-08-04T05:27:15.001Z,14.40
2017-08-04T05:29:43.355Z,14.40
2017-08-04T05:32:12.434Z,14.60
2017-08-04T05:34:40.828Z,14.60
2017-08-04T05:37:10.020Z,14.70
2017-08-04T05:39:38.412Z,14.70
2017-08-04T05:42:06.772Z,14.70
2017-08-04T05:44:35.128Z,14.70
2017-08-04T05:47:04.244Z,14.90
2017-08-04T05:49:33.308Z,14.90
2017-08-04T05:52:01.608Z,15.00
2017-08-04T05:54:29.974Z,15.00
2017-08-04T05:56:58.269Z,15.20
2017-08-04T05:59:26.625Z,15.20
2017-08-04T06:01:54.918Z,15.40
2017-08-04T06:04:23.218Z,15.40
2017-08-04T06:06:53.252Z,15.40
2017-08-04T06:09:21.756Z,15.30
2017-08-04T06:11:50.060Z,15.40
2017-08-04T06:14:18.359Z,15.40
2017-08-04T06:16:46.701Z,15.30
2017-08-04T06:19:15.008Z,15.40
2017-08-04T06:21:43.361Z,15.50
2017-08-04T06:24:12.640Z,15.50
2017-08-04T06:26:40.967Z,15.60
2017-08-04T06:29:09.303Z,15.60
2017-08-04T06:31:37.605Z,15.70
2017-08-04T06:34:06.144Z,15.90
2017-08-04T06:36:34.573Z,16.10
2017-08-04T06:39:03.029Z,16.20
2017-08-04T06:41:32.128Z,16.30
2017-08-04T06:44:01.224Z,16.30
2017-08-04T06:46:29.560Z,16.30
2017-08-04T06:49:11.999Z,16.30
2017-08-04T06:51:52.145Z,16.30
2017-08-04T06:54:42.980Z,16.30
2017-08-04T06:57:11.322Z,16.30
2017-08-04T06:59:39.670Z,16.10
2017-08-04T07:02:08.139Z,16.00
2017-08-04T07:04:37.230Z,16.30
2017-08-04T07:07:05.571Z,16.20
2017-08-04T07:09:33.917Z,16.50
2017-08-04T07:12:06.584Z,16.70
2017-08-04T07:14:34.968Z,16.60
2017-08-04T07:17:03.305Z,16.50
2017-08-04T07:19:32.372Z,16.40
2017-08-04T07:22:00.744Z,16.40
2017-08-04T07:24:29.961Z,16.20
2017-08-04T07:26:58.529Z,16.20
2017-08-04T07:29:26.868Z,16.10
2017-08-04T07:31:55.168Z,16.10
2017-08-04T07:34:23.581Z,16.10
2017-08-04T07:36:51.882Z,16.10
2017-08-04T07:39:20.244Z,16.30
2017-08-04T07:41:48.539Z,16.40
2017-08-04T07:44:16.876Z,16.60
2017-08-04T07:46:45.167Z,16.60
2017-08-04T07:49:14.908Z,16.50
2017-08-04T07:51:43.208Z,16.40
2017-08-04T07:54:11.501Z,16.20
2017-08-04T07:56:39.852Z,16.20
2017-08-04T07:59:08.161Z,16.30
2017-08-04T08:01:36.515Z,16.20
2017-08-04T08:04:04.827Z,16.00
2017-08-04T08:06:33.204Z,16.00
2017-08-04T08:09:01.503Z,16.00
2017-08-04T08:11:29.809Z,16.00
2017-08-04T08:13:58.252Z,15.90
2017-08-04T08:16:26.547Z,15.70
2017-08-04T08:18:54.849Z,15.80
2017-08-04T08:21:23.352Z,15.90
2017-08-04T08:23:51.656Z,15.70
2017-08-04T08:26:19.999Z,15.70
2017-08-04T08:28:48.293Z,15.50
2017-08-04T08:31:16.588Z,15.50
2017-08-04T08:33:44.933Z,15.50
2017-08-04T08:36:13.263Z,15.70
2017-08-04T08:38:41.615Z,15.80
2017-08-04T08:41:10.497Z,15.80
2017-08-04T08:43:38.851Z,15.80
2017-08-04T08:46:07.152Z,16.10
2017-08-04T08:48:35.443Z,16.70
2017-08-04T08:51:03.817Z,16.70
2017-08-04T08:53:32.236Z,16.80
2017-08-04T08:56:00.661Z,16.80
2017-08-04T08:58:29.163Z,16.80
2017-08-04T09:00:57.671Z,16.70
2017-08-04T09:03:26.277Z,16.50
2017-08-04T09:05:55.013Z,16.40
2017-08-04T09:08:23.529Z,16.50
2017-08-04T09:10:52.108Z,16.40
2017-08-04T09:13:20.692Z,16.50
2017-08-04T09:15:49.993Z,16.60
2017-08-04T09:18:18.439Z,16.80
2017-08-04T09:20:47.361Z,17.10
2017-08-04T09:23:16.515Z,17.00
2017-08-04T09:25:45.475Z,16.90
2017-08-04T09:28:15.321Z,16.90
2017-08-04T09:30:43.964Z,17.40
2017-08-04T09:33:13.514Z,17.60
2017-08-04T09:35:41.980Z,17.80
2017-08-04T09:38:10.606Z,17.80
2017-08-04T09:40:39.113Z,17.90
2017-08-04T09:43:07.744Z,17.80
2017-08-04T09:45:36.129Z,17.80
2017-08-04T09:48:04.449Z,17.80
2017-08-04T09:50:32.779Z,18.30
2017-08-04T09:53:01.112Z,18.50
2017-08-04T09:55:29.455Z,18.40
2017-08-04T09:57:57.908Z,18.20
2017-08-04T10:00:26.333Z,17.90
2017-08-04T10:02:55.322Z,18.30
2017-08-04T10:05:23.709Z,18.10
2017-08-04T10:07:52.148Z,18.20
2017-08-04T10:10:20.884Z,18.80
2017-08-04T10:12:49.182Z,18.80
2017-08-04T10:15:17.507Z,18.40
2017-08-04T10:17:45.860Z,18.20
2017-08-04T10:20:14.213Z,18.40
2017-08-04T10:22:42.509Z,18.40
2017-08-04T10:25:10.855Z,19.00
2017-08-04T10:27:39.344Z,19.00
2017-08-04T10:30:07.635Z,18.50
2017-08-04T10:32:35.941Z,18.90
2017-08-04T10:35:04.304Z,19.00
2017-08-04T10:37:32.747Z,19.20
2017-08-04T10:40:01.035Z,19.10
2017-08-04T10:42:29.787Z,19.10
2017-08-04T10:44:58.224Z,20.00
2017-08-04T10:47:27.541Z,19.80
2017-08-04T10:49:55.915Z,20.00
2017-08-04T10:52:24.267Z,19.90
2017-08-04T10:54:52.596Z,20.10
2017-08-04T10:57:20.944Z,20.50
2017-08-04T10:59:49.236Z,20.20
2017-08-04T11:02:17.582Z,20.00
2017-08-04T11:04:45.892Z,19.90
2017-08-04T11:07:14.254Z,20.30
2017-08-04T11:09:43.516Z,21.10
2017-08-04T11:12:11.823Z,21.10
2017-08-04T11:14:40.222Z,21.20
2017-08-04T11:17:11.483Z,21.10
2017-08-04T11:19:39.926Z,21.30
2017-08-04T11:22:08.259Z,21.90
2017-08-04T11:24:36.591Z,21.30
2017-08-04T11:27:04.996Z,20.90
2017-08-04T11:29:33.300Z,20.40
2017-08-04T11:32:01.644Z,20.10
2017-08-04T11:34:29.962Z,20.20
2017-08-04T11:36:58.252Z,19.90
2017-08-04T11:39:26.634Z,20.80
2017-08-04T11:41:55.011Z,21.80
2017-08-04T11:44:23.848Z,21.50
2017-08-04T11:46:52.160Z,21.90
2017-08-04T11:49:20.541Z,22.30
2017-08-04T11:51:49.000Z,22.00
2017-08-04T11:54:17.333Z,22.50
2017-08-04T11:56:45.621Z,23.10
2017-08-04T11:59:13.990Z,22.50
2017-08-04T12:01:42.304Z,22.00
2017-08-04T12:04:10.840Z,22.00
2017-08-04T12:06:39.239Z,22.20
2017-08-04T12:09:07.724Z,22.80
2017-08-04T12:11:36.257Z,23.20
2017-08-04T12:14:04.658Z,22.30
2017-08-04T12:16:33.020Z,21.70
2017-08-04T12:19:01.369Z,21.80
2017-08-04T12:21:29.988Z,22.60
2017-08-04T12:23:58.295Z,23.10
2017-08-04T12:26:26.836Z,23.60
2017-08-04T12:28:55.228Z,22.90
2017-08-04T12:31:23.560Z,22.60
2017-08-04T12:33:52.030Z,22.50
2017-08-04T12:36:20.344Z,21.90
2017-08-04T12:38:48.657Z,22.20
2017-08-04T12:41:17.007Z,22.40
2017-08-04T12:43:45.368Z,23.20
2017-08-04T12:46:13.756Z,22.70
2017-08-04T12:48:42.187Z,21.90
2017-08-04T12:51:10.549Z,21.90
2017-08-04T12:53:38.944Z,22.40
2017-08-04T12:56:07.393Z,22.00
2017-08-04T12:58:35.835Z,21.60
2017-08-04T13:01:04.208Z,21.60
2017-08-04T13:03:32.564Z,22.20
2017-08-04T13:06:01.062Z,22.80
2017-08-04T13:08:29.421Z,22.70
2017-08-04T13:10:57.729Z,22.20
2017-08-04T13:13:26.135Z,21.70
2017-08-04T13:15:54.516Z,21.80
2017-08-04T13:18:22.820Z,21.60
2017-08-04T13:20:51.198Z,21.60
2017-08-04T13:23:19.558Z,22.50
2017-08-04T13:25:47.896Z,22.40
2017-08-04T13:28:16.257Z,22.30
2017-08-04T13:30:44.760Z,21.90
2017-08-04T13:33:13.317Z,21.60
2017-08-04T13:35:41.820Z,21.50
2017-08-04T13:38:15.904Z,22.20
2017-08-04T13:40:44.259Z,22.50
2017-08-04T13:43:12.655Z,22.10
2017-08-04T13:45:41.000Z,22.30
2017-08-04T13:48:09.510Z,23.00
2017-08-04T13:50:37.881Z,23.30
2017-08-04T13:53:06.355Z,24.10
2017-08-04T13:55:34.788Z,23.70
2017-08-04T13:58:03.225Z,23.30
2017-08-04T14:00:31.689Z,22.60
2017-08-04T14:03:00.035Z,23.00
2017-08-04T14:05:28.337Z,23.50
2017-08-04T14:07:56.833Z,22.50
2017-08-04T14:10:25.214Z,22.30
2017-08-04T14:12:53.548Z,21.70
2017-08-04T14:15:21.896Z,21.60
2017-08-04T14:17:50.248Z,22.10
2017-08-04T14:20:18.604Z,22.10
2017-08-04T14:22:47.069Z,22.20
2017-08-04T14:25:15.418Z,23.00
2017-08-04T14:27:43.851Z,22.60
2017-08-04T14:30:14.468Z,23.50
2017-08-04T14:32:42.858Z,23.40
2017-08-04T14:35:11.156Z,23.00
2017-08-04T14:37:40.503Z,22.20
2017-08-04T14:40:08.823Z,22.20
2017-08-04T14:42:39.313Z,22.00
2017-08-04T14:45:07.896Z,21.10
2017-08-04T14:47:37.004Z,21.00
2017-08-04T14:50:09.344Z,20.90
2017-08-04T14:52:37.689Z,21.60
2017-08-04T14:55:06.012Z,21.90
2017-08-04T14:57:34.408Z,21.30
2017-08-04T15:00:03.952Z,21.20
2017-08-04T15:02:32.377Z,22.30
2017-08-04T15:05:00.809Z,22.70
2017-08-04T15:07:29.165Z,22.60
2017-08-04T15:10:00.184Z,22.40
2017-08-04T15:12:28.561Z,21.70
2017-08-04T15:14:57.017Z,21.30
2017-08-04T15:17:26.591Z,21.20
2017-08-04T15:19:55.532Z,21.20
2017-08-04T15:22:24.157Z,21.50
2017-08-04T15:24:52.483Z,22.20
2017-08-04T15:27:20.896Z,21.40
2017-08-04T15:29:49.232Z,21.00
2017-08-04T15:32:17.820Z,20.70
2017-08-04T15:34:46.208Z,20.30
2017-08-04T15:37:14.500Z,20.60
2017-08-04T15:39:42.924Z,20.50
2017-08-04T15:42:11.221Z,20.20
2017-08-04T15:44:39.551Z,20.70
2017-08-04T15:47:07.900Z,21.20
2017-08-04T15:49:36.240Z,21.30
2017-08-04T15:52:04.596Z,20.90
2017-08-04T15:54:32.883Z,20.80
2017-08-04T15:57:01.247Z,20.60
2017-08-04T15:59:30.887Z,20.60
2017-08-04T16:01:59.241Z,20.90
2017-08-04T16:04:27.631Z,20.80
2017-08-04T16:06:55.949Z,20.60
2017-08-04T16:09:24.314Z,21.20
2017-08-04T16:11:52.640Z,20.80
2017-08-04T16:14:20.928Z,20.90
2017-08-04T16:16:49.260Z,21.30
2017-08-04T16:19:17.556Z,20.90
2017-08-04T16:21:45.900Z,20.80
2017-08-04T16:24:14.220Z,20.40
2017-08-04T16:26:42.560Z,20.20
2017-08-04T16:29:10.872Z,20.00
2017-08-04T16:31:39.308Z,19.90
2017-08-04T16:34:07.601Z,19.80
2017-08-04T16:36:35.929Z,19.90
2017-08-04T16:39:04.308Z,20.10
2017-08-04T16:41:32.596Z,19.90
2017-08-04T16:44:00.955Z,19.80
2017-08-04T16:46:29.265Z,20.30
2017-08-04T16:48:57.584Z,20.30
2017-08-04T16:51:25.987Z,20.40
2017-08-04T16:53:54.272Z,20.90
2017-08-04T16:56:22.637Z,20.80
2017-08-04T16:58:50.927Z,21.00
2017-08-04T17:01:19.211Z,20.90
2017-08-04T17:03:47.615Z,21.30
2017-08-04T17:06:15.898Z,20.70
2017-08-04T17:08:44.243Z,20.40
2017-08-04T17:11:12.581Z,20.20
2017-08-04T17:13:40.867Z,19.70
2017-08-04T17:16:09.208Z,19.50
2017-08-04T17:18:37.504Z,19.20
2017-08-04T17:21:05.802Z,19.00
2017-08-04T17:23:34.597Z,19.20
2017-08-04T17:26:02.884Z,19.00
2017-08-04T17:28:32.625Z,19.10
2017-08-04T17:31:00.927Z,18.80
2017-08-04T17:33:29.272Z,18.80
2017-08-04T17:35:57.620Z,18.80
2017-08-04T17:38:25.972Z,18.80
2017-08-04T17:40:54.273Z,18.60
2017-08-04T17:43:22.632Z,18.60
2017-08-04T17:45:50.924Z,18.50
2017-08-04T17:48:19.212Z,18.40
2017-08-04T17:50:47.548Z,18.50
2017-08-04T17:53:15.853Z,18.30
2017-08-04T17:55:44.199Z,18.30
2017-08-04T17:58:24.244Z,18.20
2017-08-04T18:00:52.539Z,18.20
2017-08-04T18:03:20.880Z,18.20
2017-08-04T18:05:49.182Z,18.00
2017-08-04T18:08:17.468Z,18.00
2017-08-04T18:10:45.803Z,18.10
2017-08-04T18:13:14.118Z,18.00
2017-08-04T18:15:42.464Z,18.00
2017-08-04T18:18:10.919Z,18.00
2017-08-04T18:20:39.216Z,17.90
2017-08-04T18:23:07.576Z,17.90
2017-08-04T18:25:36.660Z,17.70
2017-08-04T18:28:05.141Z,17.70
2017-08-04T18:30:33.449Z,17.70
2017-08-04T18:33:01.753Z,17.60
2017-08-04T18:35:30.093Z,17.60
2017-08-04T18:37:58.428Z,17.60
2017-08-04T18:40:28.117Z,17.50
2017-08-04T18:42:56.415Z,17.40
2017-08-04T18:45:24.861Z,17.40
2017-08-04T18:47:53.143Z,17.30
2017-08-04T18:50:22.592Z,17.30
2017-08-04T18:52:50.923Z,17.10
2017-08-04T18:55:20.970Z,17.10
2017-08-04T18:57:49.345Z,17.00
2017-08-04T19:00:17.633Z,16.90
2017-08-04T19:02:45.993Z,16.80
2017-08-04T19:05:14.292Z,16.80
2017-08-04T19:07:43.201Z,16.70
2017-08-04T19:10:11.649Z,16.60
2017-08-04T19:12:39.952Z,16.50
2017-08-04T19:15:08.249Z,16.50
2017-08-04T19:17:36.585Z,16.40
2017-08-04T19:20:04.882Z,16.30
2017-08-04T19:22:33.220Z,16.30
2017-08-04T19:25:01.564Z,16.20
2017-08-04T19:27:29.980Z,16.20
2017-08-04T19:29:58.332Z,16.30
2017-08-04T19:32:26.642Z,16.20
2017-08-04T19:34:55.237Z,16.20
2017-08-04T19:37:24.035Z,16.20
2017-08-04T19:39:52.647Z,16.10
2017-08-04T19:42:21.544Z,16.10
2017-08-04T19:44:49.903Z,16.00
2017-08-04T19:47:18.251Z,15.90
2017-08-04T19:49:46.592Z,15.70
2017-08-04T19:52:14.933Z,15.70
2017-08-04T19:54:43.225Z,15.50
2017-08-04T19:57:11.530Z,15.50
2017-08-04T19:59:39.864Z,15.40
2017-08-04T20:02:08.152Z,15.40
2017-08-04T20:04:36.493Z,15.40
2017-08-04T20:07:06.580Z,15.40
2017-08-04T20:09:35.080Z,15.40
2017-08-04T20:12:03.373Z,15.30
2017-08-04T20:14:31.681Z,15.40
2017-08-04T20:17:00.026Z,15.40
2017-08-04T20:19:28.331Z,15.40
2017-08-04T20:21:56.635Z,15.30
2017-08-04T20:24:24.985Z,15.30
2017-08-04T20:26:53.329Z,15.20
2017-08-04T20:29:21.670Z,15.10
2017-08-04T20:31:49.960Z,15.20
2017-08-04T20:34:18.309Z,15.10
2017-08-04T20:36:46.606Z,15.00
2017-08-04T20:39:14.953Z,15.00
2017-08-04T20:41:43.428Z,15.00
2017-08-04T20:44:11.712Z,15.00
2017-08-04T20:46:40.000Z,15.00
2017-08-04T20:49:08.336Z,15.00
2017-08-04T20:51:37.396Z,14.90
2017-08-04T20:54:05.687Z,14.90
2017-08-04T20:56:34.042Z,14.90
2017-08-04T20:59:02.408Z,14.80
2017-08-04T21:01:30.737Z,14.70
2017-08-04T21:03:59.062Z,14.60
2017-08-04T21:06:27.422Z,14.60
2017-08-04T21:08:55.750Z,14.50
2017-08-04T21:11:24.980Z,14.50
2017-08-04T21:13:53.276Z,14.50
2017-08-04T21:16:21.612Z,14.50
2017-08-04T21:18:50.124Z,14.50
2017-08-04T21:21:18.417Z,14.50
2017-08-04T21:23:46.723Z,14.50
2017-08-04T21:26:15.928Z,14.50
2017-08-04T21:28:45.002Z,14.60
2017-08-04T21:31:13.347Z,14.60
2017-08-04T21:33:41.635Z,14.60
2017-08-04T21:36:09.936Z,14.60
2017-08-04T21:38:38.269Z,14.80
2017-08-04T21:41:06.555Z,14.60
2017-08-04T21:43:34.996Z,14.60
2017-08-04T21:46:03.304Z,14.70
2017-08-04T21:48:31.608Z,14.70
2017-08-04T21:50:59.957Z,14.70
2017-08-04T21:53:28.299Z,14.60
2017-08-04T21:55:57.495Z,14.60
2017-08-04T21:58:26.137Z,14.60
2017-08-04T22:00:54.448Z,14.60
2017-08-04T22:03:22.748Z,14.60
2017-08-04T22:05:51.085Z,14.50
2017-08-04T22:08:19.423Z,14.50
2017-08-04T22:10:47.798Z,14.50
2017-08-04T22:13:16.112Z,14.50
2017-08-04T22:15:44.672Z,14.50
2017-08-04T22:18:13.737Z,14.50
2017-08-04T22:20:42.067Z,14.50
2017-08-04T22:23:11.126Z,14.50
2017-08-04T22:25:40.572Z,14.50
2017-08-04T22:28:08.984Z,14.40
2017-08-04T22:30:38.049Z,14.40
2017-08-04T22:33:06.400Z,14.30
2017-08-04T22:35:34.733Z,14.40
2017-08-04T22:38:03.026Z,14.50
2017-08-04T22:40:31.345Z,14.50
2017-08-04T22:43:00.604Z,14.50
2017-08-04T22:45:29.031Z,14.50
2017-08-04T22:47:58.128Z,14.40
2017-08-04T22:50:26.565Z,14.40
2017-08-04T22:52:54.858Z,14.40
2017-08-04T22:55:23.952Z,14.40
2017-08-04T22:57:53.108Z,14.50
2017-08-04T23:00:21.451Z,14.50
2017-08-04T23:02:50.536Z,14.30
2017-08-04T23:05:18.937Z,14.30
2017-08-04T23:07:47.737Z,14.30
2017-08-04T23:10:16.207Z,14.30
2017-08-04T23:12:44.508Z,14.20
2017-08-04T23:15:12.809Z,14.20
2017-08-04T23:17:41.312Z,14.20
2017-08-04T23:20:10.433Z,14.20
2017-08-04T23:22:39.499Z,14.40
2017-08-04T23:25:07.843Z,14.40
2017-08-04T23:27:36.147Z,14.30
2017-08-04T23:30:04.442Z,14.30
2017-08-04T23:32:32.786Z,14.30
2017-08-04T23:35:01.917Z,14.60
2017-08-04T23:37:32.091Z,14.60
2017-08-04T23:40:00.408Z,14.70
2017-08-04T23:42:29.594Z,14.80
2017-08-04T23:44:57.924Z,14.80
2017-08-04T23:47:27.001Z,14.90
2017-08-04T23:49:55.349Z,14.90
2017-08-04T23:52:23.697Z,15.00
2017-08-04T23:54:52.036Z,15.00
2017-08-04T23:57:20.378Z,15.00
2017-08-04T23:59:48.752Z,14.90
